createdAt,value
2018-08-13T00:02:29.429Z,30.80
2018-08-13T00:07:33.148Z,31.26
2018-08-13T00:12:36.888Z,31.15
2018-08-13T00:17:40.473Z,30.84
2018-08-13T00:22:43.948Z,31.35
2018-08-13T00:27:47.932Z,31.14
2018-08-13T00:32:51.773Z,31.42
2018-08-13T00:37:55.380Z,30.83
2018-08-13T00:42:58.961Z,30.72
2018-08-13T00:48:02.563Z,30.65
2018-08-13T00:53:06.251Z,30.70
2018-08-13T00:58:09.753Z,30.97
2018-08-13T01:03:13.405Z,30.92
2018-08-13T01:08:16.987Z,30.86
2018-08-13T01:13:20.647Z,30.62
2018-08-13T01:18:24.224Z,30.67
2018-08-13T01:23:27.804Z,30.77
2018-08-13T01:28:31.562Z,30.99
2018-08-13T01:33:35.184Z,31.09
2018-08-13T01:38:38.664Z,31.03
2018-08-13T01:43:42.329Z,31.08
2018-08-13T01:48:45.884Z,31.32
2018-08-13T01:53:49.330Z,31.02
2018-08-13T01:58:52.944Z,31.62
2018-08-13T02:03:56.619Z,31.17
2018-08-13T02:09:00.357Z,31.37
2018-08-13T02:14:04.018Z,31.04
2018-08-13T02:19:08.064Z,31.28
2018-08-13T02:24:11.665Z,31.75
2018-08-13T02:29:15.380Z,31.48
2018-08-13T02:34:19.344Z,31.49
2018-08-13T02:39:23.025Z,31.56
2018-08-13T02:44:26.557Z,31.83
2018-08-13T02:49:30.119Z,31.78
2018-08-13T02:54:33.681Z,32.05
2018-08-13T02:59:37.175Z,31.60
2018-08-13T03:04:40.773Z,31.63
2018-08-13T03:09:44.425Z,32.15
2018-08-13T03:14:48.005Z,31.89
2018-08-13T03:19:51.467Z,31.73
2018-08-13T03:24:55.115Z,31.72
2018-08-13T03:29:59.848Z,32.39
2018-08-13T03:35:03.387Z,32.11
2018-08-13T03:40:09.797Z,32.49
2018-08-13T03:45:13.281Z,32.28
2018-08-13T03:50:16.848Z,32.49
2018-08-13T03:55:20.452Z,32.58
2018-08-13T04:00:24.018Z,32.51
2018-08-13T04:05:27.648Z,32.27
2018-08-13T04:10:31.242Z,33.22
2018-08-13T04:15:34.744Z,33.65
2018-08-13T04:20:38.653Z,33.44
2018-08-13T04:25:42.657Z,33.59
2018-08-13T04:30:46.206Z,33.43
2018-08-13T04:35:50.026Z,33.44
2018-08-13T04:40:53.740Z,33.39
2018-08-13T04:45:57.784Z,33.52
2018-08-13T04:51:01.282Z,33.66
2018-08-13T04:56:04.845Z,33.32
2018-08-13T05:01:08.561Z,33.56
2018-08-13T05:06:12.224Z,33.78
2018-08-13T05:11:15.736Z,34.13
2018-08-13T05:16:19.201Z,33.99
2018-08-13T05:21:22.790Z,34.33
2018-08-13T05:26:26.483Z,34.33
2018-08-13T05:31:29.985Z,34.09
2018-08-13T05:36:33.604Z,33.76
2018-08-13T05:41:37.253Z,33.83
2018-08-13T05:46:40.852Z,33.78
2018-08-13T05:51:44.373Z,33.56
2018-08-13T05:56:47.988Z,33.93
2018-08-13T06:01:51.500Z,33.63
2018-08-13T06:06:55.029Z,33.45
2018-08-13T06:11:58.723Z,33.69
2018-08-13T06:17:02.262Z,33.62
2018-08-13T06:22:05.757Z,33.71
2018-08-13T06:27:09.293Z,33.65
2018-08-13T06:32:13.012Z,33.32
2018-08-13T06:37:16.600Z,33.63
2018-08-13T06:42:20.134Z,33.68
2018-08-13T06:47:23.710Z,33.68
2018-08-13T06:52:27.388Z,33.15
2018-08-13T06:57:30.844Z,33.32
2018-08-13T07:02:34.411Z,32.99
2018-08-13T07:07:39.376Z,33.30
2018-08-13T07:12:45.498Z,33.53
2018-08-13T07:17:49.031Z,33.53
2018-08-13T07:22:52.605Z,33.43
2018-08-13T07:27:56.260Z,32.93
2018-08-13T07:32:59.776Z,32.95
2018-08-13T07:38:03.216Z,32.79
2018-08-13T07:43:06.976Z,32.76
2018-08-13T07:48:10.521Z,32.97
2018-08-13T07:53:14.017Z,32.96
2018-08-13T07:58:17.577Z,33.19
2018-08-13T08:03:21.158Z,33.64
2018-08-13T08:08:24.920Z,33.98
2018-08-13T08:13:28.481Z,33.66
2018-08-13T08:18:32.516Z,33.32
2018-08-13T08:23:36.392Z,33.25
2018-08-13T08:28:39.902Z,33.47
2018-08-13T08:33:43.377Z,33.43
2018-08-13T08:38:46.933Z,33.21
2018-08-13T08:43:50.541Z,33.35
2018-08-13T08:48:54.528Z,33.50
2018-08-13T08:53:58.075Z,33.40
2018-08-13T08:59:01.801Z,32.75
2018-08-13T09:04:05.894Z,32.79
2018-08-13T09:09:11.708Z,32.81
2018-08-13T09:14:15.272Z,32.32
2018-08-13T09:19:30.306Z,32.58
2018-08-13T09:24:45.165Z,32.75
2018-08-13T09:29:59.913Z,32.60
2018-08-13T09:35:16.540Z,32.11
2018-08-13T09:40:20.088Z,32.02
2018-08-13T09:45:23.716Z,32.05
2018-08-13T09:50:27.397Z,31.87
2018-08-13T09:55:30.872Z,32.23
2018-08-13T10:00:39.572Z,31.98
2018-08-13T10:05:43.112Z,32.48
2018-08-13T10:10:46.717Z,32.45
2018-08-13T10:15:50.264Z,32.80
2018-08-13T10:20:53.841Z,32.43
2018-08-13T10:25:57.452Z,32.97
2018-08-13T10:31:01.101Z,32.74
2018-08-13T10:36:04.665Z,32.93
2018-08-13T10:41:08.148Z,33.33
2018-08-13T10:46:11.657Z,33.29
2018-08-13T10:51:15.457Z,33.64
2018-08-13T10:56:18.939Z,33.40
2018-08-13T11:01:22.441Z,33.86
2018-08-13T11:06:26.120Z,33.96
2018-08-13T11:11:29.633Z,34.30
2018-08-13T11:16:33.265Z,34.96
2018-08-13T11:21:36.883Z,34.42
2018-08-13T11:26:40.473Z,34.75
2018-08-13T11:31:43.966Z,35.13
2018-08-13T11:36:47.500Z,35.07
2018-08-13T11:41:51.065Z,35.22
2018-08-13T11:46:54.698Z,35.04
2018-08-13T11:51:58.470Z,34.67
2018-08-13T11:57:02.961Z,34.66
2018-08-13T12:02:07.073Z,34.61
2018-08-13T12:07:10.649Z,34.85
2018-08-13T12:12:14.372Z,34.99
2018-08-13T12:17:18.030Z,34.73
2018-08-13T12:22:21.793Z,34.89
2018-08-13T12:27:25.353Z,34.73
2018-08-13T12:32:28.872Z,34.56
2018-08-13T12:37:32.372Z,34.62
2018-08-13T12:42:35.968Z,34.37
2018-08-13T12:47:39.843Z,34.60
2018-08-13T12:52:44.948Z,34.15
2018-08-13T12:57:48.405Z,34.31
2018-08-13T13:02:52.041Z,34.31
2018-08-13T13:07:55.560Z,34.74
2018-08-13T13:12:59.593Z,34.46
2018-08-13T13:18:03.121Z,34.55
2018-08-13T13:23:06.619Z,34.86
2018-08-13T13:28:10.153Z,34.57
2018-08-13T13:33:14.078Z,34.56
2018-08-13T13:38:17.943Z,34.54
2018-08-13T13:43:21.518Z,34.87
2018-08-13T13:48:25.574Z,34.71
2018-08-13T13:53:29.598Z,35.02
2018-08-13T13:58:33.473Z,34.59
2018-08-13T14:03:37.343Z,35.16
2018-08-13T14:08:42.072Z,35.28
2018-08-13T14:13:45.874Z,35.33
2018-08-13T14:18:49.381Z,34.90
2018-08-13T14:23:52.968Z,35.33
2018-08-13T14:28:56.596Z,35.47
2018-08-13T14:34:00.308Z,35.64
2018-08-13T14:39:05.847Z,35.34
2018-08-13T14:44:09.965Z,35.35
2018-08-13T14:49:13.461Z,35.35
2018-08-13T14:54:17.345Z,35.68
2018-08-13T14:59:21.020Z,35.91
2018-08-13T15:04:24.845Z,35.66
2018-08-13T15:09:28.593Z,35.69
2018-08-13T15:14:32.576Z,35.72
2018-08-13T15:19:36.504Z,36.08
2018-08-13T15:24:41.355Z,35.79
2018-08-13T15:29:45.349Z,35.83
2018-08-13T15:34:49.269Z,36.35
2018-08-13T15:39:52.941Z,36.02
2018-08-13T15:44:56.425Z,36.07
2018-08-13T15:50:00.799Z,36.26
2018-08-13T15:55:04.657Z,35.99
2018-08-13T16:00:10.033Z,36.38
2018-08-13T16:05:13.679Z,37.23
2018-08-13T16:10:18.193Z,37.83
2018-08-13T16:15:21.945Z,38.85
2018-08-13T16:20:25.676Z,38.42
2018-08-13T16:25:29.196Z,39.18
2018-08-13T16:30:33.410Z,44.84
2018-08-13T16:35:37.389Z,44.75
2018-08-13T16:40:43.342Z,44.79
2018-08-13T16:45:48.692Z,43.75
2018-08-13T16:50:53.721Z,46.29
2018-08-13T16:55:59.751Z,45.77
2018-08-13T17:01:05.271Z,46.21
2018-08-13T17:06:09.203Z,46.05
2018-08-13T17:11:12.809Z,47.86
2018-08-13T17:16:18.558Z,46.96
2018-08-13T17:21:23.862Z,45.18
2018-08-13T17:26:30.885Z,45.61
2018-08-13T17:31:38.461Z,44.61
2018-08-13T17:36:44.361Z,45.04
2018-08-13T17:41:50.372Z,45.36
2018-08-13T17:46:54.223Z,45.13
2018-08-13T17:51:58.120Z,44.92
2018-08-13T17:57:03.761Z,44.55
2018-08-13T18:02:09.441Z,44.55
2018-08-13T18:07:14.654Z,44.75
2018-08-13T18:12:19.860Z,44.78
2018-08-13T18:17:23.622Z,45.20
2018-08-13T18:22:28.682Z,44.46
2018-08-13T18:27:34.659Z,45.01
2018-08-13T18:32:40.468Z,45.21
2018-08-13T18:37:46.430Z,45.82
2018-08-13T18:42:52.161Z,45.74
2018-08-13T18:47:57.423Z,45.58
2018-08-13T18:53:03.441Z,45.97
2018-08-13T18:58:08.111Z,45.55
2018-08-13T19:03:12.200Z,45.20
2018-08-13T19:08:15.738Z,45.15
2018-08-13T19:13:19.427Z,45.13
2018-08-13T19:18:23.015Z,45.17
2018-08-13T19:23:26.602Z,45.53
2018-08-13T19:28:30.505Z,45.58
2018-08-13T19:33:34.432Z,46.03
2018-08-13T19:38:37.971Z,46.61
2018-08-13T19:43:41.454Z,46.85
2018-08-13T19:48:44.979Z,45.48
2018-08-13T19:53:48.620Z,46.09
2018-08-13T19:58:52.332Z,45.74
2018-08-13T20:03:55.896Z,45.84
2018-08-13T20:08:59.590Z,46.01
2018-08-13T20:14:03.156Z,46.13
2018-08-13T20:19:06.884Z,45.92
2018-08-13T20:24:10.415Z,46.07
2018-08-13T20:29:14.108Z,46.31
2018-08-13T20:34:17.567Z,45.77
2018-08-13T20:39:21.110Z,46.10
2018-08-13T20:44:25.781Z,45.87
2018-08-13T20:49:29.521Z,46.14
2018-08-13T20:54:33.031Z,46.07
2018-08-13T20:59:36.688Z,45.93
2018-08-13T21:04:40.300Z,45.52
2018-08-13T21:09:44.196Z,45.29
2018-08-13T21:14:47.735Z,45.41
2018-08-13T21:19:51.373Z,45.38
2018-08-13T21:24:55.221Z,45.38
2018-08-13T21:29:58.895Z,45.19
2018-08-13T21:35:02.484Z,45.56
2018-08-13T21:40:07.969Z,45.10
2018-08-13T21:45:12.684Z,45.28
2018-08-13T21:50:18.749Z,44.79
2018-08-13T21:55:22.236Z,45.25
2018-08-13T22:00:29.917Z,44.60
2018-08-13T22:05:33.813Z,44.97
2018-08-13T22:10:37.653Z,45.30
2018-08-13T22:15:41.198Z,44.78
2018-08-13T22:20:44.966Z,45.25
2018-08-13T22:25:48.588Z,44.71
2018-08-13T22:30:52.511Z,44.47
2018-08-13T22:35:56.060Z,45.23
2018-08-13T22:40:59.548Z,44.87
2018-08-13T22:46:03.090Z,45.21
2018-08-13T22:51:07.035Z,44.78
2018-08-13T22:56:10.681Z,44.47
2018-08-13T23:01:14.471Z,44.67
2018-08-13T23:06:18.123Z,45.04
2018-08-13T23:11:21.746Z,44.82
2018-08-13T23:16:25.405Z,44.51
2018-08-13T23:21:29.144Z,44.88
2018-08-13T23:26:32.702Z,44.40
2018-08-13T23:31:36.232Z,45.05
2018-08-13T23:36:39.964Z,44.67
2018-08-13T23:41:44.256Z,44.78
2018-08-13T23:46:47.907Z,45.01
2018-08-13T23:51:51.518Z,44.97
2018-08-13T23:56:55.114Z,44.89
